Log in Register

Login to your account

Username *
Password *
Remember Me

Create an account

Fields marked with an asterisk (*) are required.
Name *
Username *
Password *
Verify password *
Email *
Verify email *

Rentrée BIA 2019-2020

Il est temps de s'inscrire!

 

affiche A3 2019 v1

 

 Niveau minimum de 3e? Scolarisé(e) ou habitant le bassin aixois?Intrigué(e) ou déjà passionné(e)? Nous t'accueillons volontier pour suivre notre enseignement au Brevet d'Initiation à l'Aéronautique - BIAd'octobre à mai.

 

Attention, les places sont limitées à 16 élèves. Inscris-toi vite!

 

Dossier + paiement à déposer au club (nous vous invitons à appeler avant de venir), ou renvoyer par courrier postal (cf rubrique contact) ou à This email address is being protected from spambots. You need JavaScript enabled to view it.

Paiements Chèque (ordre Aéroclub de Savoie), CHQ vacances, CB ou espèces.

           

 

 

BIA 2

 

 

 

                                                                                          

Nous contacter

 Téléphone : +33 (0)4 79 54 41 81

Coordonnées détaillées et accès : cliquez ici

 
LFLB °C
    Ferienhaus Ostsee
[source: ADDS]
METAR
LFLB 210100Z AUTO 30003KT 270V340 CAVOK 15/10 Q1021 NOSIG =
TAF LFLB 202300Z 2100/2124 VRB03KT CAVOK TEMPO 2100/2104 36010KT
TAF
TAF LFLB 202300Z 2100/2124 VRB03KT CAVOK TEMPO 2100/2104 36010KT =
SR / SS: 05:21 / 17:37 UTC (Lever/Coucher du soleil le 2019-09-21)
JSN Boot template designed by JoomlaShine.com